Terminal Aerodrome Forecast
Issued by NWS Atlanta, GA

Home | Current Version | Previous Version | Text Only | Print | Product List | Glossary On
Versions: 1 2 3 4 5 6 7 8 9 10 11 12 13 14 15 16 17 18 19 20 21 22 23 24 25 26 27 28 29
000
FTAK31 PAJN 021700
TAFAHN
TAF
PAHN 021724Z 0218/0318 30010KT P6SM BKN200
     FM030300 32010KT P6SM -RA BKN050 OVC080
     FM030800 31010KT 5SM -RA BR SCT015 BKN025 OVC040
      AMD LTD TO CLD VIS AND WIND=

USA.gov is the U.S. government's official web portal to all federal, state and local government web resources and services.